Time;durP1;ratioP1;P1;durP2;ratioP2;P2;SDS_P1;SDS_P2;PMS_P1;PMS_P2;Temp;Humidity;BMP_temperature;BMP_pressure;BME280_temperature;BME280_humidity;BME280_pressure;Samples;Min_cycle;Max_cycle;Signal;HPM_P1;HPM_P2
2023/05/26 00:00:04;;;;;;;0.00;0.00;;;5.10;99.90;;;;;;5049430;28;20041;-78
2023/05/26 00:02:30;;;;;;;0.20;0.20;;;5.00;99.90;;;;;;5049556;28;20049;-78
2023/05/26 00:05:01;;;;;;;1.80;0.75;;;4.90;99.90;;;;;;5049996;28;20068;-79
2023/05/26 00:07:27;;;;;;;5.28;0.57;;;4.80;99.90;;;;;;5048133;28;20056;-78
2023/05/26 00:09:52;;;;;;;0.22;0.22;;;4.80;99.90;;;;;;5049145;28;20045;-79
2023/05/26 00:12:18;;;;;;;0.22;0.22;;;4.80;99.90;;;;;;5049623;28;20052;-79
2023/05/26 00:14:46;;;;;;;0.32;0.32;;;4.80;99.90;;;;;;5048852;28;20344;-78
2023/05/26 00:17:12;;;;;;;0.00;0.00;;;4.70;99.90;;;;;;5049842;28;20463;-78
2023/05/26 00:19:38;;;;;;;0.00;0.00;;;4.60;99.90;;;;;;5049126;28;21147;-79
2023/05/26 00:22:04;;;;;;;0.00;0.00;;;4.60;99.90;;;;;;5049284;28;20052;-78
2023/05/26 00:24:30;;;;;;;0.00;0.00;;;4.50;99.90;;;;;;5049373;28;20051;-78
2023/05/26 00:26:56;;;;;;;0.00;0.00;;;4.50;99.90;;;;;;5049543;28;20045;-79
2023/05/26 00:29:22;;;;;;;0.10;0.10;;;4.40;99.90;;;;;;5049728;28;20048;-79
2023/05/26 00:31:47;;;;;;;0.22;0.15;;;4.40;99.90;;;;;;5049837;28;20044;-78
2023/05/26 00:34:13;;;;;;;0.00;0.00;;;4.40;99.90;;;;;;5049506;28;20086;-78
2023/05/26 00:36:38;;;;;;;1.45;0.55;;;4.40;99.90;;;;;;5049826;28;20181;-78
2023/05/26 00:39:04;;;;;;;0.90;0.88;;;4.40;99.90;;;;;;5051936;28;20040;-79
2023/05/26 00:41:30;;;;;;;2.33;2.13;;;4.40;99.90;;;;;;5051369;28;20056;-78
2023/05/26 00:43:55;;;;;;;0.10;0.10;;;4.50;99.90;;;;;;5050992;28;20049;-79
2023/05/26 00:46:21;;;;;;;0.40;0.40;;;4.50;99.90;;;;;;5052856;28;20044;-78
2023/05/26 00:48:47;;;;;;;0.32;0.32;;;4.50;99.90;;;;;;5052432;28;20155;-79
2023/05/26 00:51:13;;;;;;;0.00;0.00;;;4.50;99.90;;;;;;5059300;28;20060;-79
2023/05/26 00:53:43;;;;;;;0.35;0.35;;;4.50;99.90;;;;;;5072453;28;20043;-77
2023/05/26 00:56:15;;;;;;;0.00;0.00;;;4.70;99.90;;;;;;5072238;28;20462;-78
2023/05/26 00:58:42;;;;;;;0.32;0.32;;;4.90;99.90;;;;;;5072358;28;20045;-79
2023/05/26 01:01:08;;;;;;;0.63;0.63;;;4.90;99.90;;;;;;5061601;28;20101;-79
2023/05/26 01:03:35;;;;;;;0.20;0.20;;;5.00;99.90;;;;;;5049592;28;20049;-79
2023/05/26 01:06:00;;;;;;;4.70;0.77;;;5.20;99.90;;;;;;5048968;28;20048;-79
2023/05/26 01:08:26;;;;;;;0.10;0.10;;;5.10;99.90;;;;;;5048183;28;20442;-79
2023/05/26 01:10:54;;;;;;;0.28;0.20;;;5.00;99.90;;;;;;5048687;28;20095;-79
2023/05/26 01:13:25;;;;;;;0.28;0.28;;;4.90;99.90;;;;;;5048622;28;20060;-78
2023/05/26 01:15:59;;;;;;;0.38;0.25;;;4.80;99.90;;;;;;5047038;28;20037;-78
2023/05/26 01:18:30;;;;;;;0.40;0.40;;;4.70;99.90;;;;;;5048286;28;20053;-78
2023/05/26 01:21:08;;;;;;;0.00;0.00;;;4.50;99.90;;;;;;5047921;28;20045;-78
2023/05/26 01:23:56;;;;;;;2.38;2.17;;;4.40;99.90;;;;;;5047284;28;20053;-77
2023/05/26 01:26:31;;;;;;;0.00;0.00;;;4.50;99.90;;;;;;5047411;28;20049;-78
2023/05/26 01:29:04;;;;;;;1.25;0.68;;;4.40;99.90;;;;;;5049299;28;20049;-78
2023/05/26 01:31:33;;;;;;;2.05;0.63;;;4.40;99.90;;;;;;5047550;28;20044;-78
2023/05/26 01:34:00;;;;;;;0.00;0.00;;;4.40;99.90;;;;;;5047354;28;20617;-78
2023/05/26 01:36:28;;;;;;;0.00;0.00;;;4.40;99.90;;;;;;5046560;28;20075;-78
2023/05/26 01:38:53;;;;;;;0.88;0.65;;;4.30;99.90;;;;;;5051061;28;20104;-79
2023/05/26 01:41:26;;;;;;;0.20;0.20;;;4.20;99.90;;;;;;5046500;28;20131;-78
2023/05/26 01:43:58;;;;;;;0.00;0.00;;;4.10;99.90;;;;;;5047267;28;20415;-79
2023/05/26 01:46:35;;;;;;;3.20;2.17;;;4.00;99.90;;;;;;5047373;28;20055;-79
2023/05/26 01:49:03;;;;;;;0.20;0.20;;;4.00;99.90;;;;;;5047332;28;20053;-78
2023/05/26 01:51:33;;;;;;;0.00;0.00;;;3.90;99.90;;;;;;5047946;28;20071;-79
2023/05/26 01:54:01;;;;;;;0.20;0.13;;;3.90;99.90;;;;;;5047397;28;20053;-78
2023/05/26 01:56:31;;;;;;;0.10;0.10;;;3.80;99.90;;;;;;5047540;28;20053;-79
2023/05/26 01:58:58;;;;;;;0.50;0.40;;;3.80;99.90;;;;;;5048600;28;20434;-78
2023/05/26 02:01:26;;;;;;;0.63;0.63;;;3.80;99.90;;;;;;5047456;28;20045;-79
2023/05/26 02:03:52;;;;;;;0.00;0.00;;;3.70;99.90;;;;;;5046637;28;20061;-79
2023/05/26 02:06:18;;;;;;;0.00;0.00;;;3.60;99.90;;;;;;5048240;28;20049;-78
2023/05/26 02:08:44;;;;;;;0.65;0.65;;;3.60;99.90;;;;;;5047581;28;20384;-78
2023/05/26 02:11:10;;;;;;;0.13;0.10;;;3.50;99.90;;;;;;5047567;28;20059;-78
2023/05/26 02:13:35;;;;;;;0.00;0.00;;;3.60;99.90;;;;;;5047668;28;20491;-79
2023/05/26 02:16:01;;;;;;;0.15;0.15;;;3.70;99.90;;;;;;5046953;28;20053;-77
2023/05/26 02:18:26;;;;;;;0.25;0.25;;;3.80;99.90;;;;;;5046961;28;20503;-78
2023/05/26 02:20:52;;;;;;;0.10;0.10;;;4.00;99.90;;;;;;5047270;28;20049;-79
2023/05/26 02:23:18;;;;;;;0.00;0.00;;;4.10;99.90;;;;;;5047727;28;20045;-79
2023/05/26 02:25:43;;;;;;;0.10;0.10;;;4.00;99.90;;;;;;5046602;28;20385;-79
2023/05/26 02:28:09;;;;;;;0.00;0.00;;;3.90;99.90;;;;;;5047465;28;20407;-79
2023/05/26 02:30:35;;;;;;;0.47;0.25;;;3.80;99.90;;;;;;5049345;28;20043;-78
2023/05/26 02:33:00;;;;;;;0.10;0.10;;;3.80;99.90;;;;;;5046831;28;20609;-78
2023/05/26 02:35:26;;;;;;;0.00;0.00;;;3.80;99.90;;;;;;5047215;28;20049;-78
2023/05/26 02:37:51;;;;;;;0.32;0.30;;;3.70;99.90;;;;;;5046912;28;20465;-78
2023/05/26 02:40:17;;;;;;;0.00;0.00;;;3.60;99.90;;;;;;5046821;28;20059;-78
2023/05/26 02:42:43;;;;;;;0.00;0.00;;;3.50;99.90;;;;;;5047253;28;20051;-79
2023/05/26 02:45:09;;;;;;;0.10;0.10;;;3.40;99.90;;;;;;5047576;28;20067;-78
2023/05/26 02:47:35;;;;;;;1.25;0.88;;;3.60;99.90;;;;;;5047423;28;20080;-77
2023/05/26 02:50:00;;;;;;;0.10;0.10;;;3.60;99.90;;;;;;5045846;28;20079;-78
2023/05/26 02:52:27;;;;;;;1.90;0.88;;;3.50;99.90;;;;;;5047026;28;20041;-78
2023/05/26 02:54:52;;;;;;;0.10;0.10;;;3.40;99.90;;;;;;5047763;28;20051;-78
2023/05/26 02:57:18;;;;;;;0.00;0.00;;;3.50;99.90;;;;;;5051287;28;20045;-78
2023/05/26 02:59:44;;;;;;;0.00;0.00;;;3.30;99.90;;;;;;5051390;28;20049;-77
2023/05/26 03:02:10;;;;;;;0.10;0.10;;;3.30;99.90;;;;;;5051481;28;20063;-78
2023/05/26 03:04:36;;;;;;;0.00;0.00;;;3.20;99.90;;;;;;5051372;28;20045;-79
2023/05/26 03:07:01;;;;;;;0.00;0.00;;;4.20;99.90;;;;;;5049626;28;20118;-77
2023/05/26 03:09:27;;;;;;;0.25;0.25;;;3.10;99.90;;;;;;5052136;28;20561;-78
2023/05/26 03:11:52;;;;;;;0.00;0.00;;;3.10;99.90;;;;;;5051835;28;20041;-78
2023/05/26 03:14:18;;;;;;;0.00;0.00;;;3.10;99.90;;;;;;5050507;28;20116;-77
2023/05/26 03:16:44;;;;;;;1.27;0.90;;;3.10;99.90;;;;;;5050972;28;20041;-79
2023/05/26 03:19:10;;;;;;;0.00;0.00;;;3.00;99.90;;;;;;5052506;28;20048;-79
2023/05/26 03:21:36;;;;;;;0.28;0.28;;;3.00;99.90;;;;;;5051688;28;20048;-78
2023/05/26 03:24:01;;;;;;;0.10;0.10;;;3.10;99.90;;;;;;5050354;28;20048;-78
2023/05/26 03:26:27;;;;;;;0.00;0.00;;;3.00;99.90;;;;;;5050881;28;20408;-79
2023/05/26 03:28:53;;;;;;;2.25;1.02;;;3.00;99.90;;;;;;5051356;28;20037;-79
2023/05/26 03:31:18;;;;;;;3.72;1.45;;;3.00;99.90;;;;;;5051747;28;20368;-78
2023/05/26 03:33:45;;;;;;;0.05;0.05;;;3.00;99.90;;;;;;5051779;28;20048;-78
2023/05/26 03:36:11;;;;;;;0.00;0.00;;;3.00;99.90;;;;;;5051912;28;20569;-79
2023/05/26 03:38:36;;;;;;;0.15;0.15;;;3.00;99.90;;;;;;5052040;28;20044;-79
2023/05/26 03:41:02;;;;;;;0.03;0.03;;;3.00;99.90;;;;;;5052419;28;20088;-80
2023/05/26 03:43:27;;;;;;;0.10;0.10;;;2.90;99.90;;;;;;5051978;28;20045;-78
2023/05/26 03:45:53;;;;;;;0.00;0.00;;;3.00;99.90;;;;;;5051295;28;20045;-78
2023/05/26 03:48:19;;;;;;;0.52;0.22;;;3.00;99.90;;;;;;5051650;28;20045;-78
2023/05/26 03:50:46;;;;;;;5.13;1.25;;;3.10;99.90;;;;;;5050215;28;20091;-78
2023/05/26 03:53:12;;;;;;;0.00;0.00;;;3.00;99.90;;;;;;5066145;28;20033;-78
2023/05/26 03:55:38;;;;;;;0.00;0.00;;;3.70;99.90;;;;;;5073923;28;20025;-77
2023/05/26 03:58:04;;;;;;;0.00;0.00;;;3.60;99.90;;;;;;5073905;28;20493;-80
2023/05/26 04:00:32;;;;;;;0.00;0.00;;;3.10;99.90;;;;;;5073833;28;20090;-77
2023/05/26 04:02:58;;;;;;;0.28;0.28;;;3.10;99.90;;;;;;5073658;28;20041;-79
2023/05/26 04:05:24;;;;;;;0.08;0.08;;;3.20;99.90;;;;;;5069797;28;20040;-78
2023/05/26 04:07:50;;;;;;;0.00;0.00;;;3.30;99.90;;;;;;5063323;28;20055;-78
2023/05/26 04:10:16;;;;;;;0.43;0.43;;;3.30;99.90;;;;;;5049193;28;20073;-79
2023/05/26 04:12:42;;;;;;;0.82;0.68;;;3.40;99.90;;;;;;5050723;28;20138;-79
2023/05/26 04:15:11;;;;;;;1.75;0.32;;;3.50;99.90;;;;;;5049350;28;20129;-79
2023/05/26 04:17:37;;;;;;;0.00;0.00;;;3.60;99.90;;;;;;5050440;28;20124;-79
2023/05/26 04:20:07;;;;;;;0.03;0.03;;;3.60;99.90;;;;;;5050674;28;20134;-78
2023/05/26 04:22:33;;;;;;;0.10;0.10;;;3.70;99.90;;;;;;5049592;28;20052;-78
2023/05/26 04:25:00;;;;;;;0.00;0.00;;;3.80;99.90;;;;;;5050884;28;20095;-79
2023/05/26 04:27:25;;;;;;;0.00;0.00;;;3.90;99.90;;;;;;5052291;28;20045;-80
2023/05/26 04:29:52;;;;;;;0.45;0.45;;;4.10;99.90;;;;;;5053483;28;20137;-79
2023/05/26 04:32:21;;;;;;;0.00;0.00;;;4.20;99.90;;;;;;5053033;28;20252;-79
2023/05/26 04:34:48;;;;;;;0.00;0.00;;;4.80;99.90;;;;;;5053428;28;20049;-80
2023/05/26 04:37:14;;;;;;;0.00;0.00;;;4.50;99.90;;;;;;5053688;28;20095;-80
2023/05/26 04:39:40;;;;;;;0.45;0.45;;;4.70;99.90;;;;;;5048889;28;20080;-79
2023/05/26 04:42:06;;;;;;;0.25;0.25;;;4.80;99.90;;;;;;5052410;28;20041;-79
2023/05/26 04:44:32;;;;;;;0.00;0.00;;;5.00;99.90;;;;;;5053318;28;20041;-80
2023/05/26 04:47:00;;;;;;;0.00;0.00;;;5.50;99.90;;;;;;5053313;28;20100;-80
2023/05/26 04:49:27;;;;;;;0.10;0.10;;;6.00;99.90;;;;;;5053177;28;20495;-79
2023/05/26 04:51:55;;;;;;;0.00;0.00;;;7.10;99.90;;;;;;5050897;28;20059;-79
2023/05/26 04:54:21;;;;;;;0.00;0.00;;;6.90;99.90;;;;;;5048610;28;20134;-79
2023/05/26 04:56:47;;;;;;;0.10;0.10;;;7.50;99.90;;;;;;5044885;28;20442;-80
2023/05/26 04:59:12;;;;;;;0.10;0.10;;;7.90;99.90;;;;;;5047596;28;20044;-79
2023/05/26 05:01:38;;;;;;;0.05;0.05;;;8.10;99.90;;;;;;5045772;28;20094;-79
2023/05/26 05:04:05;;;;;;;0.00;0.00;;;8.20;99.90;;;;;;5045407;28;20671;-78
2023/05/26 05:06:30;;;;;;;0.00;0.00;;;8.20;99.90;;;;;;5045272;28;20049;-79
2023/05/26 05:08:56;;;;;;;2.60;1.80;;;8.30;99.90;;;;;;5045830;28;20124;-79
2023/05/26 05:11:22;;;;;;;0.00;0.00;;;8.30;99.90;;;;;;5046495;28;20114;-79
2023/05/26 05:13:47;;;;;;;0.20;0.20;;;8.50;99.90;;;;;;5046532;28;20045;-78
2023/05/26 05:16:13;;;;;;;1.17;0.68;;;8.70;99.90;;;;;;5044942;28;20414;-78
2023/05/26 05:18:39;;;;;;;0.20;0.20;;;8.60;6.20;;;;;;5045633;28;20445;-79
2023/05/26 05:21:04;;;;;;;0.00;0.00;;;8.70;99.90;;;;;;5046122;28;20049;-79
2023/05/26 05:23:34;;;;;;;2.55;1.60;;;8.80;99.90;;;;;;5046824;28;20091;-78
2023/05/26 05:26:00;;;;;;;0.60;0.47;;;8.80;1.00;;;;;;5046304;28;20487;-79
2023/05/26 05:28:26;;;;;;;0.20;0.20;;;9.00;1.00;;;;;;5046083;28;20534;-79
2023/05/26 05:30:51;;;;;;;3.08;1.13;;;9.20;99.90;;;;;;5046664;28;20037;-78
2023/05/26 05:33:18;;;;;;;0.10;0.10;;;9.30;1.00;;;;;;5046474;28;20076;-79
2023/05/26 05:35:45;;;;;;;0.10;0.10;;;9.30;99.90;;;;;;5045160;28;20052;-79
2023/05/26 05:38:12;;;;;;;1.60;0.90;;;9.50;99.90;;;;;;5045392;28;20628;-79
2023/05/26 05:40:37;;;;;;;0.13;0.13;;;9.70;99.90;;;;;;5045722;28;20057;-79
2023/05/26 05:43:03;;;;;;;6.63;1.02;;;10.00;99.90;;;;;;5045470;28;20037;-79
2023/05/26 05:45:29;;;;;;;7.68;2.65;;;10.40;99.90;;;;;;5045808;28;20052;-78
2023/05/26 05:47:55;;;;;;;3.13;0.75;;;10.50;99.90;;;;;;5045420;28;20044;-79
2023/05/26 05:50:20;;;;;;;1.60;1.35;;;11.00;1.00;;;;;;5045593;28;20045;-80
2023/05/26 05:52:46;;;;;;;6.20;0.20;;;11.50;99.90;;;;;;5045672;28;20082;-79
2023/05/26 05:55:12;;;;;;;0.75;0.70;;;11.80;99.90;;;;;;5044287;28;20354;-79
2023/05/26 05:57:37;;;;;;;7.20;1.98;;;11.80;99.90;;;;;;5044463;28;20052;-80
2023/05/26 06:00:11;;;;;;;0.00;0.00;;;11.70;99.90;;;;;;5046153;28;20106;-78
2023/05/26 06:02:37;;;;;;;4.35;1.70;;;11.50;99.90;;;;;;5044380;28;20056;-79
2023/05/26 06:05:03;;;;;;;0.32;0.32;;;12.10;99.90;;;;;;5043541;28;20041;-79
2023/05/26 06:07:30;;;;;;;1.55;0.75;;;11.30;99.90;;;;;;5043726;28;20057;-78
2023/05/26 06:09:57;;;;;;;0.03;0.03;;;11.20;99.90;;;;;;5044229;28;20090;-79
2023/05/26 06:12:23;;;;;;;0.45;0.40;;;11.10;99.90;;;;;;5042742;28;20080;-79
2023/05/26 06:14:49;;;;;;;2.45;0.52;;;11.00;99.90;;;;;;5043987;28;20123;-78
2023/05/26 06:17:15;;;;;;;0.00;0.00;;;10.90;99.90;;;;;;5044282;28;20137;-78
2023/05/26 06:19:40;;;;;;;17.98;1.50;;;10.70;99.90;;;;;;5043805;28;20049;-78
2023/05/26 06:22:06;;;;;;;0.82;0.68;;;10.70;99.90;;;;;;5044088;28;20048;-78
2023/05/26 06:24:31;;;;;;;3.10;1.10;;;10.80;99.90;;;;;;5044290;28;20090;-78
2023/05/26 06:26:57;;;;;;;4.03;1.20;;;10.90;15.30;;;;;;5044591;28;20047;-79
2023/05/26 06:29:22;;;;;;;2.92;1.02;;;11.00;2.10;;;;;;5044449;28;20056;-78
2023/05/26 06:31:48;;;;;;;3.63;0.85;;;11.10;1.00;;;;;;5043499;28;20047;-79
2023/05/26 06:34:14;;;;;;;1.10;1.00;;;11.10;1.00;;;;;;5042250;28;20048;-78
2023/05/26 06:36:39;;;;;;;0.25;0.25;;;11.10;1.00;;;;;;5055129;28;20095;-79
2023/05/26 06:39:05;;;;;;;0.57;0.55;;;11.30;1.00;;;;;;5064640;28;20063;-79
2023/05/26 06:41:31;;;;;;;0.00;0.00;;;11.40;99.90;;;;;;5065273;28;20499;-79
2023/05/26 06:43:56;;;;;;;3.67;1.85;;;11.50;1.00;;;;;;5064852;28;20044;-79
2023/05/26 06:46:22;;;;;;;7.22;1.60;;;11.50;99.90;;;;;;5064703;28;20052;-79
2023/05/26 06:48:47;;;;;;;4.80;1.10;;;11.60;99.90;;;;;;5080836;28;20020;-78
2023/05/26 06:51:13;;;;;;;0.05;0.05;;;11.60;99.90;;;;;;5090279;28;20020;-79
2023/05/26 06:53:39;;;;;;;0.20;0.20;;;11.80;99.90;;;;;;5090193;28;20070;-79
2023/05/26 06:56:08;;;;;;;1.38;1.05;;;12.90;99.90;;;;;;5088772;28;20037;-78
2023/05/26 06:58:33;;;;;;;0.00;0.00;;;13.20;99.90;;;;;;5089251;28;20041;-78
2023/05/26 07:01:01;;;;;;;1.75;0.45;;;13.50;99.90;;;;;;5081599;28;20051;-78
2023/05/26 07:03:27;;;;;;;4.57;1.17;;;13.60;99.90;;;;;;5062947;28;20064;-78
2023/05/26 07:05:54;;;;;;;2.08;0.60;;;14.50;99.90;;;;;;5063086;28;20060;-78
2023/05/26 07:08:20;;;;;;;28.40;1.95;;;15.90;99.90;;;;;;5063055;28;20044;-78
2023/05/26 07:10:46;;;;;;;6.85;1.83;;;16.40;99.90;;;;;;5065250;28;20109;-79
2023/05/26 07:13:12;;;;;;;0.70;0.38;;;17.00;99.90;;;;;;5064140;28;20481;-78
2023/05/26 07:15:38;;;;;;;0.52;0.38;;;17.60;99.90;;;;;;5063105;28;20083;-78
2023/05/26 07:18:03;;;;;;;0.50;0.50;;;18.10;99.90;;;;;;5062795;28;20083;-78
2023/05/26 07:20:29;;;;;;;0.63;0.63;;;18.30;99.90;;;;;;5064676;28;20044;-79
2023/05/26 07:22:55;;;;;;;1.42;0.52;;;18.30;99.90;;;;;;5063778;28;20068;-79
2023/05/26 07:25:20;;;;;;;0.40;0.30;;;18.30;99.90;;;;;;5064667;28;20051;-79
2023/05/26 07:27:46;;;;;;;0.75;0.50;;;17.80;99.90;;;;;;5063890;28;20048;-79
2023/05/26 07:30:12;;;;;;;0.57;0.45;;;17.50;99.90;;;;;;5063174;28;20052;-78
2023/05/26 07:32:37;;;;;;;5.65;1.73;;;17.60;99.90;;;;;;5066263;28;20037;-79
2023/05/26 07:35:03;;;;;;;0.45;0.45;;;17.90;99.90;;;;;;5066712;28;20036;-79
2023/05/26 07:37:29;;;;;;;1.27;0.30;;;17.70;99.90;;;;;;5065343;28;20037;-79
2023/05/26 07:39:55;;;;;;;0.20;0.20;;;18.20;99.90;;;;;;5062191;28;20163;-77
2023/05/26 07:42:21;;;;;;;0.65;0.65;;;18.10;99.90;;;;;;5064752;28;20071;-78
2023/05/26 07:44:47;;;;;;;2.00;1.13;;;18.30;99.90;;;;;;5067542;28;20037;-78
2023/05/26 07:47:13;;;;;;;2.13;0.80;;;18.60;99.90;;;;;;5069055;28;20036;-79
2023/05/26 07:49:39;;;;;;;0.43;0.43;;;18.60;99.90;;;;;;5068856;28;20119;-79
2023/05/26 07:52:04;;;;;;;2.40;1.27;;;18.40;99.90;;;;;;5068541;28;20072;-78
2023/05/26 07:54:30;;;;;;;1.15;0.70;;;18.70;99.90;;;;;;5067882;28;20041;-78
2023/05/26 07:56:56;;;;;;;1.35;0.57;;;19.00;99.90;;;;;;5066220;28;20063;-78
2023/05/26 07:59:21;;;;;;;1.80;1.02;;;19.10;99.90;;;;;;5065259;28;20048;-78
2023/05/26 08:01:47;;;;;;;0.50;0.50;;;18.50;99.90;;;;;;5066987;28;20078;-79
2023/05/26 08:04:12;;;;;;;3.92;1.70;;;18.70;99.90;;;;;;5065063;28;20410;-78
2023/05/26 08:06:38;;;;;;;0.30;0.30;;;19.00;99.90;;;;;;5064486;28;20145;-77
2023/05/26 08:09:04;;;;;;;0.57;0.28;;;19.30;99.90;;;;;;5064724;28;20056;-77
2023/05/26 08:11:30;;;;;;;3.30;1.25;;;19.40;99.90;;;;;;5064936;28;20075;-77
2023/05/26 08:13:55;;;;;;;0.30;0.20;;;18.80;99.90;;;;;;5064688;28;20040;-77
2023/05/26 08:16:21;;;;;;;1.95;1.23;;;19.40;99.90;;;;;;5064572;28;20040;-77
2023/05/26 08:18:47;;;;;;;1.33;0.82;;;19.50;99.90;;;;;;5064503;28;20056;-78
2023/05/26 08:21:12;;;;;;;3.20;1.08;;;20.10;99.90;;;;;;5064459;28;20207;-77
2023/05/26 08:23:38;;;;;;;0.30;0.30;;;20.60;99.90;;;;;;5064516;28;20041;-78
2023/05/26 08:26:05;;;;;;;0.38;0.38;;;20.30;99.90;;;;;;5064239;28;20044;-78
2023/05/26 08:28:31;;;;;;;4.22;0.93;;;20.70;99.90;;;;;;5064378;28;20059;-78
2023/05/26 08:30:56;;;;;;;0.85;0.52;;;21.30;99.90;;;;;;5064751;28;20036;-78
2023/05/26 08:33:22;;;;;;;0.20;0.20;;;20.90;99.90;;;;;;5064799;28;20495;-78
2023/05/26 08:35:47;;;;;;;0.30;0.30;;;20.70;99.90;;;;;;5064717;28;20048;-77
2023/05/26 08:38:13;;;;;;;1.25;0.65;;;21.10;99.90;;;;;;5064650;28;20041;-78
2023/05/26 08:40:38;;;;;;;0.20;0.20;;;20.90;99.90;;;;;;5064407;28;20045;-77
2023/05/26 08:43:11;;;;;;;0.88;0.55;;;20.90;99.90;;;;;;5064183;28;20053;-77
2023/05/26 08:45:37;;;;;;;1.02;0.10;;;21.10;99.90;;;;;;5064140;28;20059;-77
2023/05/26 08:48:07;;;;;;;0.73;0.55;;;21.90;99.90;;;;;;5064087;28;20044;-78
2023/05/26 08:50:33;;;;;;;0.20;0.20;;;21.80;99.90;;;;;;5065394;28;20044;-77
2023/05/26 08:53:00;;;;;;;35.33;1.85;;;21.20;99.90;;;;;;5064846;28;20387;-78
2023/05/26 08:55:28;;;;;;;1.95;0.90;;;20.80;99.90;;;;;;5063378;28;20056;-78
2023/05/26 08:57:55;;;;;;;4.68;1.25;;;21.20;99.90;;;;;;5063875;28;20043;-77
2023/05/26 09:00:21;;;;;;;0.40;0.40;;;20.60;99.90;;;;;;5063634;28;20850;-77
2023/05/26 09:02:47;;;;;;;1.17;0.65;;;20.60;98.40;;;;;;5064222;28;20056;-78
2023/05/26 09:05:14;;;;;;;0.43;0.40;;;20.70;99.50;;;;;;5064452;28;20449;-77
2023/05/26 09:07:39;;;;;;;0.10;0.10;;;20.70;98.50;;;;;;5064390;28;20055;-77
2023/05/26 09:10:25;;;;;;;25.48;2.53;;;20.60;95.00;;;;;;5064307;28;20044;-76
2023/05/26 09:13:05;;;;;;;2.90;1.48;;;20.40;92.60;;;;;;5063836;28;20048;-77
2023/05/26 09:15:30;;;;;;;1.33;1.05;;;20.80;98.40;;;;;;5064213;28;20060;-77
2023/05/26 09:18:04;;;;;;;0.77;0.30;;;21.40;99.90;;;;;;5064257;28;20253;-77
2023/05/26 09:20:30;;;;;;;0.57;0.52;;;21.30;99.90;;;;;;5063034;28;20083;-76
2023/05/26 09:22:57;;;;;;;2.17;0.70;;;22.20;99.90;;;;;;5063850;28;20491;-77
2023/05/26 09:25:28;;;;;;;1.15;0.68;;;22.50;99.90;;;;;;5063651;28;20048;-77
2023/05/26 09:28:02;;;;;;;1.20;0.35;;;22.20;99.90;;;;;;5062064;28;20044;-77
2023/05/26 09:30:42;;;;;;;3.67;0.77;;;22.30;99.90;;;;;;5063365;28;20069;-77
2023/05/26 09:33:26;;;;;;;7.85;1.48;;;21.50;96.20;;;;;;5061961;28;20094;-77
2023/05/26 09:35:52;;;;;;;1.85;1.35;;;20.60;74.90;;;;;;5063018;28;20105;-77
2023/05/26 09:38:19;;;;;;;1.98;0.90;;;20.30;73.90;;;;;;5062820;28;20037;-77
2023/05/26 09:40:49;;;;;;;0.73;0.73;;;21.20;93.60;;;;;;5063564;28;20731;-77
2023/05/26 09:43:19;;;;;;;3.90;1.75;;;20.70;90.10;;;;;;5062623;28;20075;-77
2023/05/26 09:45:45;;;;;;;2.03;0.98;;;20.20;63.50;;;;;;5062548;28;20041;-77
2023/05/26 09:48:11;;;;;;;1.92;1.52;;;20.40;68.40;;;;;;5062851;28;20044;-77
2023/05/26 09:50:38;;;;;;;0.70;0.70;;;20.30;70.70;;;;;;5063197;28;20048;-77
2023/05/26 09:53:08;;;;;;;2.38;0.75;;;20.00;72.40;;;;;;5062748;28;20048;-77
2023/05/26 09:55:33;;;;;;;0.68;0.60;;;20.70;88.00;;;;;;5063405;28;20072;-77
2023/05/26 09:58:06;;;;;;;0.80;0.38;;;20.60;78.60;;;;;;5063122;28;20534;-77
2023/05/26 10:00:38;;;;;;;0.60;0.40;;;19.90;61.30;;;;;;5062928;28;20056;-77
2023/05/26 10:03:06;;;;;;;11.27;2.20;;;19.60;58.90;;;;;;5062652;28;20441;-77
2023/05/26 10:05:38;;;;;;;0.17;0.17;;;19.20;53.30;;;;;;5062950;28;20544;-77
2023/05/26 10:08:05;;;;;;;3.90;1.00;;;19.30;50.00;;;;;;5062684;28;20071;-78
2023/05/26 10:10:33;;;;;;;2.13;1.17;;;19.40;45.20;;;;;;5062567;28;20127;-78
2023/05/26 10:12:59;;;;;;;6.53;1.02;;;19.30;48.20;;;;;;5062956;28;20467;-78
2023/05/26 10:15:25;;;;;;;0.35;0.35;;;19.50;61.10;;;;;;5062305;28;20411;-77
2023/05/26 10:17:51;;;;;;;3.33;1.00;;;19.60;51.60;;;;;;5062375;28;20482;-77
2023/05/26 10:20:18;;;;;;;1.85;0.80;;;18.80;35.40;;;;;;5062587;28;20041;-77
2023/05/26 10:23:06;;;;;;;1.90;1.00;;;19.30;54.40;;;;;;5062167;28;20089;-77
2023/05/26 10:26:00;;;;;;;0.20;0.20;;;19.00;43.30;;;;;;5062372;28;20076;-77
2023/05/26 10:28:36;;;;;;;0.30;0.22;;;18.60;37.40;;;;;;5062502;28;20044;-77
2023/05/26 10:31:02;;;;;;;2.70;1.05;;;18.60;29.90;;;;;;5060877;28;20056;-77
2023/05/26 10:33:44;;;;;;;0.10;0.10;;;19.10;54.80;;;;;;5062368;28;20435;-78
2023/05/26 10:36:18;;;;;;;0.22;0.22;;;19.10;51.00;;;;;;5062750;28;20044;-78
2023/05/26 10:38:49;;;;;;;0.57;0.50;;;18.80;39.00;;;;;;5062348;28;20044;-78
2023/05/26 10:41:49;;;;;;;0.10;0.10;;;19.10;51.10;;;;;;5063146;28;20083;-78
2023/05/26 10:44:40;;;;;;;0.82;0.75;;;19.00;42.20;;;;;;5049677;28;20135;-78
2023/05/26 10:47:06;;;;;;;0.98;0.57;;;19.20;52.80;;;;;;5062959;28;20518;-78
2023/05/26 10:49:36;;;;;;;0.35;0.32;;;19.10;49.80;;;;;;5063144;28;20045;-78
2023/05/26 10:52:14;;;;;;;1.35;1.05;;;18.90;40.50;;;;;;5062570;28;20072;-78
2023/05/26 10:54:42;;;;;;;0.28;0.28;;;18.90;36.50;;;;;;5062249;28;20056;-77
2023/05/26 10:57:32;;;;;;;2.53;1.05;;;18.90;36.80;;;;;;5062578;28;20048;-78
2023/05/26 10:59:58;;;;;;;0.22;0.20;;;19.00;47.00;;;;;;5060714;28;20083;-78
2023/05/26 11:02:24;;;;;;;4.35;2.13;;;19.20;48.20;;;;;;5062090;28;20058;-78
2023/05/26 11:04:50;;;;;;;0.80;0.55;;;19.20;43.70;;;;;;5062478;28;20372;-78
2023/05/26 11:07:16;;;;;;;10.63;0.95;;;19.10;44.30;;;;;;5062112;28;20061;-78
2023/05/26 11:09:58;;;;;;;1.10;1.00;;;19.10;40.70;;;;;;5061789;28;20057;-78
2023/05/26 11:12:24;;;;;;;0.45;0.45;;;19.10;41.70;;;;;;5062158;28;20045;-78
2023/05/26 11:14:50;;;;;;;0.00;0.00;;;19.20;38.80;;;;;;5061816;28;20055;-78
2023/05/26 11:17:18;;;;;;;0.95;0.50;;;19.30;42.00;;;;;;5062578;28;20405;-78
2023/05/26 11:19:58;;;;;;;0.40;0.40;;;19.50;46.40;;;;;;5066031;28;20071;-78
2023/05/26 11:22:25;;;;;;;0.73;0.73;;;19.70;55.40;;;;;;5066233;28;20045;-78
2023/05/26 11:24:51;;;;;;;0.38;0.30;;;19.60;56.00;;;;;;5066501;28;20044;-78
2023/05/26 11:27:17;;;;;;;0.55;0.28;;;20.20;66.30;;;;;;5066545;28;20121;-78
2023/05/26 11:29:45;;;;;;;0.43;0.30;;;20.30;70.10;;;;;;5065012;28;20074;-78
2023/05/26 11:32:12;;;;;;;5.20;1.63;;;20.20;70.20;;;;;;5066424;28;20090;-78
2023/05/26 11:34:38;;;;;;;0.68;0.45;;;20.70;81.30;;;;;;5066375;28;20051;-78
2023/05/26 11:37:07;;;;;;;1.15;0.50;;;21.10;81.10;;;;;;5066460;28;20577;-78
2023/05/26 11:39:34;;;;;;;0.75;0.73;;;21.80;92.10;;;;;;5066685;28;20040;-78
2023/05/26 11:42:10;;;;;;;1.13;0.85;;;21.70;93.20;;;;;;5065955;28;20048;-78
2023/05/26 11:44:37;;;;;;;6.03;0.80;;;22.70;99.90;;;;;;5065763;28;20048;-78
2023/05/26 11:47:04;;;;;;;4.72;1.70;;;23.00;99.90;;;;;;5065578;28;20041;-78
2023/05/26 11:49:30;;;;;;;0.75;0.68;;;23.40;99.90;;;;;;5067905;28;20051;-78
2023/05/26 11:51:56;;;;;;;1.23;0.88;;;22.60;99.90;;;;;;5066279;28;20044;-78
2023/05/26 11:54:22;;;;;;;0.60;0.60;;;21.60;92.60;;;;;;5064973;28;20150;-78
2023/05/26 11:56:47;;;;;;;0.32;0.32;;;21.40;84.30;;;;;;5066317;28;20131;-78
2023/05/26 11:59:20;;;;;;;1.25;0.73;;;21.70;86.30;;;;;;5066323;28;20044;-78
2023/05/26 12:01:46;;;;;;;1.90;0.88;;;22.20;91.90;;;;;;5065899;28;20489;-78
2023/05/26 12:04:12;;;;;;;2.28;1.45;;;23.10;99.90;;;;;;5065978;28;20103;-78
2023/05/26 12:06:43;;;;;;;6.25;2.38;;;24.30;99.90;;;;;;5065818;28;20084;-78
2023/05/26 12:09:17;;;;;;;0.80;0.68;;;24.50;99.90;;;;;;5066465;28;20037;-78
2023/05/26 12:11:46;;;;;;;3.20;1.75;;;23.30;99.90;;;;;;5065562;28;20127;-78
2023/05/26 12:14:13;;;;;;;2.05;1.00;;;22.70;97.40;;;;;;5064749;28;20114;-78
2023/05/26 12:16:44;;;;;;;1.55;0.80;;;22.80;96.80;;;;;;5065376;28;20091;-78
2023/05/26 12:19:11;;;;;;;3.88;1.73;;;22.80;96.50;;;;;;5065621;28;20048;-78
2023/05/26 12:21:42;;;;;;;0.57;0.52;;;21.10;72.50;;;;;;5064846;28;20045;-78
2023/05/26 12:24:08;;;;;;;1.70;1.08;;;21.50;70.40;;;;;;5065230;28;20045;-78
2023/05/26 12:26:34;;;;;;;1.33;1.23;;;22.70;94.00;;;;;;5065217;28;20045;-78
2023/05/26 12:29:06;;;;;;;7.10;2.83;;;21.90;75.70;;;;;;5065420;28;20438;-78
2023/05/26 12:31:39;;;;;;;1.20;0.98;;;20.90;56.10;;;;;;5064932;28;20049;-78
2023/05/26 12:34:04;;;;;;;1.05;0.68;;;21.40;60.90;;;;;;5065132;28;20794;-78
2023/05/26 12:36:31;;;;;;;2.03;0.55;;;20.40;36.30;;;;;;5064942;28;20052;-78
2023/05/26 12:38:56;;;;;;;1.55;0.32;;;20.60;42.10;;;;;;5065105;28;20131;-78
2023/05/26 12:41:22;;;;;;;1.00;0.68;;;21.70;66.80;;;;;;5064832;28;20127;-78
2023/05/26 12:43:48;;;;;;;0.73;0.73;;;22.10;73.90;;;;;;5064858;28;20405;-78
2023/05/26 12:46:13;;;;;;;2.10;1.15;;;21.20;56.20;;;;;;5064154;28;20061;-78
2023/05/26 12:48:39;;;;;;;0.43;0.43;;;21.20;52.20;;;;;;5064882;28;20059;-78
2023/05/26 12:51:05;;;;;;;1.85;0.73;;;20.90;46.20;;;;;;5064575;28;20044;-78